Canton, OH (44730)

2:41 PM EDT on July 28, 2015 (GMT -0400)
Village of East Canton | | Change Station
CLOSE
Current Station
Personal Weather Station
Location: East Canton, OH
Elevation: 1155 ft
Nearby Weather Stations

Elev 1155 ft 40.79 °N, 81.29 °W | Updated 1 minute ago

Partly Cloudy
Partly Cloudy
88.5 °F
Feels Like 89 °F
N
1.6
Wind Variable Wind from NE
Gusts 3.8 mph

Today
High -- | Low -- °F
--% Chance of Precip.
Yesterday
High -- | Low -- °F
Precip. -- in
6:17 AM 8:44 PM
Waxing Gibbous, 91% visible
Pressure 30.01 in
Visibility 10.0 miles
Clouds Scattered Clouds 5000 ft
Heat Index 89 °F
Dew Point 62 °F
Humidity 41%
Rainfall 0.00 in
Snow Depth Not available.
UV 9 out of 12
Pollen 6.40 out of 12
Air Quality Not available.
Flu Activity Not available.
METAR KCAK 281751Z 04004KT 10SM SCT050 31/17 A3003 RMK AO2 SLP160 T03060172 10311 20217 55005

More Conditions Fewer Conditions

Pressure 30.01 in
Visibility 10.0 miles
Clouds Scattered Clouds 5000 ft
Heat Index 89 °F
Dew Point 62 °F
Humidity 41%
Rainfall 0.00 in
Snow Depth Not available.
UV 9 out of 12
Pollen 6.40 out of 12
Air Quality Not available.
Flu Activity Not available.
METAR KCAK 281751Z 04004KT 10SM SCT050 31/17 A3003 RMK AO2 SLP160 T03060172 10311 20217 55005

More Conditions Fewer Conditions

10-Day Weather Forecast

×

Almanac

Astronomy

Jul. 28, 2015 Rise Set
Actual Time
Civil Twilight
Nautical Twilight
Astronomical Twilight
Moon
Length of Visible Light
Length of Day
Tomorrow will be .
, % of the Moon is Illuminated

Today's Extremes

State Highs State Lows

Community

WunderPhotos

Upload Photos

1,841,908 photos uploaded!

WunderBlogs® & News

Nearby

Air Quality

  Air Quality AQ Index Pollutant
Not available.

Snow Depth

Station Depth Elevation

Earthquake Activity

City Distance Mag. Time & Date
Minimum magnitude displayed is 2.5.

Coastal Water Temperatures

Place Temperature

Stations

Nearby Weather Stations

Station Location Temp. Windchill Dew Point Humidity Wind Precip. Elev Updated Type